createdAt,value
2022-08-18T00:01:11.881Z,25.90
2022-08-18T00:03:56.063Z,25.82
2022-08-18T00:06:30.006Z,25.83
2022-08-18T00:08:59.157Z,25.72
2022-08-18T00:11:27.962Z,25.67
2022-08-18T00:13:55.328Z,25.71
2022-08-18T00:16:22.961Z,25.66
2022-08-18T00:18:50.399Z,25.54
2022-08-18T00:21:18.606Z,25.42
2022-08-18T00:23:46.233Z,25.54
2022-08-18T00:26:13.817Z,25.44
2022-08-18T00:28:41.135Z,25.49
2022-08-18T00:31:08.730Z,25.40
2022-08-18T00:33:36.075Z,25.48
2022-08-18T00:36:03.830Z,25.37
2022-08-18T00:38:31.538Z,25.32
2022-08-18T00:40:58.968Z,25.38
2022-08-18T00:43:48.092Z,25.26
2022-08-18T00:46:25.589Z,25.31
2022-08-18T00:48:52.935Z,25.33
2022-08-18T00:51:28.117Z,25.32
2022-08-18T00:54:07.216Z,25.23
2022-08-18T00:56:39.794Z,25.19
2022-08-18T00:59:12.385Z,25.22
2022-08-18T01:01:41.273Z,25.10
2022-08-18T01:04:12.931Z,25.05
2022-08-18T01:06:52.578Z,25.01
2022-08-18T01:09:20.027Z,25.03
2022-08-18T01:11:47.664Z,24.99
2022-08-18T01:14:18.423Z,25.02
2022-08-18T01:17:06.041Z,24.89
2022-08-18T01:19:52.201Z,24.83
2022-08-18T01:22:47.552Z,24.78
2022-08-18T01:25:36.586Z,24.72
2022-08-18T01:28:05.011Z,24.74
2022-08-18T01:30:45.689Z,24.69
2022-08-18T01:33:13.049Z,24.69
2022-08-18T01:35:41.926Z,24.65
2022-08-18T01:38:09.642Z,24.62
2022-08-18T01:41:17.375Z,24.53
2022-08-18T01:43:24.922Z,24.51
2022-08-18T01:45:52.487Z,24.51
2022-08-18T01:48:19.872Z,24.50
2022-08-18T01:50:49.324Z,24.45
2022-08-18T01:53:18.315Z,24.49
2022-08-18T01:55:45.672Z,24.45
2022-08-18T01:58:13.340Z,24.42
2022-08-18T02:00:42.105Z,24.26
2022-08-18T02:03:11.623Z,24.26
2022-08-18T02:05:43.927Z,24.34
2022-08-18T02:08:12.566Z,24.25
2022-08-18T02:10:40.080Z,24.33
2022-08-18T02:13:07.969Z,24.24
2022-08-18T02:15:35.964Z,24.24
2022-08-18T02:18:03.296Z,24.23
2022-08-18T02:20:30.658Z,24.14
2022-08-18T02:23:00.864Z,24.13
2022-08-18T02:25:28.181Z,24.06
2022-08-18T02:27:56.715Z,24.12
2022-08-18T02:30:24.315Z,24.10
2022-08-18T02:32:51.628Z,24.07
2022-08-18T02:35:19.033Z,24.01
2022-08-18T02:37:48.172Z,24.06
2022-08-18T02:40:17.032Z,23.93
2022-08-18T02:42:45.457Z,24.00
2022-08-18T02:45:14.313Z,24.05
2022-08-18T02:47:44.261Z,23.90
2022-08-18T02:50:12.909Z,23.98
2022-08-18T02:52:41.290Z,23.96
2022-08-18T02:55:09.608Z,23.96
2022-08-18T02:57:38.933Z,23.97
2022-08-18T03:00:07.000Z,24.03
2022-08-18T03:02:34.396Z,23.93
2022-08-18T03:05:01.744Z,24.00
2022-08-18T03:07:29.337Z,23.96
2022-08-18T03:09:56.752Z,23.99
2022-08-18T03:12:24.939Z,23.92
2022-08-18T03:14:52.557Z,23.81
2022-08-18T03:17:19.886Z,23.85
2022-08-18T03:19:47.854Z,23.99
2022-08-18T03:22:28.257Z,23.93
2022-08-18T03:24:57.241Z,23.92
2022-08-18T03:27:25.129Z,23.90
2022-08-18T03:29:52.462Z,23.78
2022-08-18T03:32:19.818Z,23.83
2022-08-18T03:34:47.405Z,23.80
2022-08-18T03:37:15.985Z,23.84
2022-08-18T03:39:43.538Z,23.86
2022-08-18T03:42:11.182Z,23.85
2022-08-18T03:44:38.540Z,23.75
2022-08-18T03:47:10.247Z,23.73
2022-08-18T03:49:38.598Z,23.82
2022-08-18T03:52:09.456Z,23.80
2022-08-18T03:54:38.834Z,23.75
2022-08-18T03:57:10.979Z,23.72
2022-08-18T03:59:41.507Z,23.69
2022-08-18T04:02:10.611Z,23.76
2022-08-18T04:04:38.329Z,23.78
2022-08-18T04:07:11.916Z,23.79
2022-08-18T04:09:39.556Z,23.65
2022-08-18T04:12:16.256Z,23.71
2022-08-18T04:14:48.216Z,23.85
2022-08-18T04:17:26.238Z,23.83
2022-08-18T04:19:55.053Z,23.85
2022-08-18T04:22:23.107Z,23.91
2022-08-18T04:24:50.938Z,23.92
2022-08-18T04:27:20.369Z,23.97
2022-08-18T04:29:47.984Z,23.98
2022-08-18T04:32:15.354Z,24.04
2022-08-18T04:34:42.944Z,24.06
2022-08-18T04:37:10.900Z,24.09
2022-08-18T04:39:38.345Z,24.15
2022-08-18T04:42:06.202Z,24.11
2022-08-18T04:44:35.298Z,24.23
2022-08-18T04:47:02.674Z,24.30
2022-08-18T04:49:31.963Z,24.35
2022-08-18T04:52:30.982Z,24.39
2022-08-18T04:55:06.412Z,24.39
2022-08-18T04:57:35.157Z,24.54
2022-08-18T05:00:06.243Z,24.66
2022-08-18T05:02:34.980Z,24.84
2022-08-18T05:05:03.842Z,25.04
2022-08-18T05:07:31.210Z,25.17
2022-08-18T05:09:59.565Z,25.37
2022-08-18T05:12:27.081Z,25.47
2022-08-18T05:14:56.987Z,25.68
2022-08-18T05:17:28.870Z,25.75
2022-08-18T05:20:01.509Z,26.01
2022-08-18T05:22:39.756Z,26.14
2022-08-18T05:25:09.228Z,26.35
2022-08-18T05:27:38.886Z,26.41
2022-08-18T05:30:07.495Z,26.46
2022-08-18T05:32:48.624Z,26.57
2022-08-18T05:35:25.681Z,26.68
2022-08-18T05:38:08.504Z,27.02
2022-08-18T05:40:36.405Z,27.26
2022-08-18T05:43:04.883Z,27.35
2022-08-18T05:45:34.623Z,27.34
2022-08-18T05:48:02.433Z,27.62
2022-08-18T05:50:32.595Z,27.65
2022-08-18T05:53:13.959Z,27.57
2022-08-18T05:56:03.032Z,27.72
2022-08-18T05:58:33.785Z,27.89
2022-08-18T06:01:13.375Z,28.07
2022-08-18T06:03:54.364Z,28.12
2022-08-18T06:06:29.500Z,28.28
2022-08-18T06:09:24.409Z,28.30
2022-08-18T06:11:54.426Z,28.55
2022-08-18T06:14:22.586Z,28.74
2022-08-18T06:16:56.268Z,28.74
2022-08-18T06:19:34.142Z,28.76
2022-08-18T06:22:07.456Z,28.90
2022-08-18T06:25:01.445Z,29.30
2022-08-18T06:27:45.465Z,29.43
2022-08-18T06:30:19.814Z,29.65
2022-08-18T06:32:56.796Z,29.64
2022-08-18T06:35:38.192Z,29.78
2022-08-18T06:38:36.425Z,30.13
2022-08-18T06:41:40.746Z,30.20
2022-08-18T06:44:20.172Z,30.24
2022-08-18T06:46:53.526Z,30.51
2022-08-18T06:49:28.798Z,30.62
2022-08-18T06:51:56.469Z,30.54
2022-08-18T06:54:29.309Z,30.70
2022-08-18T06:56:58.115Z,30.85
2022-08-18T06:59:29.043Z,31.08
2022-08-18T07:02:00.593Z,30.97
2022-08-18T07:04:59.598Z,31.04
2022-08-18T07:07:39.667Z,30.82
2022-08-18T07:10:29.015Z,30.82
2022-08-18T07:13:18.505Z,31.02
2022-08-18T07:15:48.186Z,31.18
2022-08-18T07:18:22.919Z,31.27
2022-08-18T07:20:54.206Z,31.33
2022-08-18T07:23:34.727Z,31.54
2022-08-18T07:26:06.643Z,31.32
2022-08-18T07:28:38.091Z,31.57
2022-08-18T07:31:17.607Z,31.68
2022-08-18T07:33:56.803Z,31.64
2022-08-18T07:36:29.235Z,31.74
2022-08-18T07:39:03.815Z,32.00
2022-08-18T07:41:41.548Z,31.88
2022-08-18T07:44:33.226Z,32.04
2022-08-18T07:47:05.083Z,32.17
2022-08-18T07:49:35.400Z,32.43
2022-08-18T07:52:44.285Z,32.43
2022-08-18T07:55:19.150Z,32.57
2022-08-18T07:57:57.599Z,32.47
2022-08-18T08:00:59.192Z,32.35
2022-08-18T08:03:46.219Z,32.32
2022-08-18T08:06:39.383Z,32.39
2022-08-18T08:09:11.025Z,32.56
2022-08-18T08:12:25.376Z,32.95
2022-08-18T08:15:07.120Z,32.76
2022-08-18T08:17:39.465Z,32.78
2022-08-18T08:20:25.484Z,32.96
2022-08-18T08:23:27.413Z,33.31
2022-08-18T08:26:19.826Z,33.16
2022-08-18T08:29:06.287Z,33.15
2022-08-18T08:31:42.856Z,33.40
2022-08-18T08:34:15.607Z,33.38
2022-08-18T08:36:45.957Z,33.51
2022-08-18T08:39:19.348Z,33.69
2022-08-18T08:41:52.203Z,33.77
2022-08-18T08:44:58.142Z,33.72
2022-08-18T08:47:34.947Z,33.99
2022-08-18T08:50:06.024Z,34.20
2022-08-18T08:52:57.365Z,34.13
2022-08-18T08:55:34.681Z,34.05
2022-08-18T08:58:08.134Z,34.25
2022-08-18T09:00:36.895Z,34.21
2022-08-18T09:03:13.517Z,33.99
2022-08-18T09:05:59.486Z,34.13
2022-08-18T09:08:34.123Z,34.25
2022-08-18T09:11:10.307Z,34.17
2022-08-18T09:13:53.259Z,34.22
2022-08-18T09:16:51.798Z,34.37
2022-08-18T09:19:47.429Z,34.53
2022-08-18T09:22:36.844Z,34.47
2022-08-18T09:25:11.212Z,34.71
2022-08-18T09:28:09.310Z,34.82
2022-08-18T09:31:08.688Z,34.71
2022-08-18T09:33:45.802Z,34.78
2022-08-18T09:36:28.371Z,34.90
2022-08-18T09:42:11.516Z,35.10
2022-08-18T09:44:48.062Z,34.85
2022-08-18T09:47:21.883Z,34.97
2022-08-18T09:49:53.474Z,34.77
2022-08-18T09:55:18.540Z,35.14
2022-08-18T09:57:47.900Z,34.97
2022-08-18T10:00:28.280Z,35.02
2022-08-18T10:02:56.243Z,34.91
2022-08-18T10:05:29.684Z,35.19
2022-08-18T10:08:06.798Z,35.10
2022-08-18T10:11:01.448Z,35.26
2022-08-18T10:13:29.689Z,35.23
2022-08-18T10:15:59.135Z,35.28
2022-08-18T10:19:08.172Z,35.60
2022-08-18T10:22:00.662Z,35.43
2022-08-18T10:25:20.840Z,35.88
2022-08-18T10:27:52.368Z,35.77
2022-08-18T10:30:34.523Z,35.95
2022-08-18T10:33:18.038Z,35.99
2022-08-18T10:36:01.030Z,36.12
2022-08-18T10:38:49.301Z,36.47
2022-08-18T10:41:24.465Z,36.35
2022-08-18T10:43:57.759Z,36.38
2022-08-18T10:46:42.513Z,36.44
2022-08-18T10:49:13.994Z,36.52
2022-08-18T10:52:01.181Z,36.54
2022-08-18T10:55:06.905Z,36.65
2022-08-18T10:58:00.482Z,36.62
2022-08-18T11:00:41.154Z,36.66
2022-08-18T11:03:50.088Z,36.80
2022-08-18T11:06:18.238Z,36.83
2022-08-18T11:08:53.464Z,36.75
2022-08-18T11:11:34.430Z,36.77
2022-08-18T11:14:27.916Z,36.75
2022-08-18T11:17:03.981Z,36.91
2022-08-18T11:19:42.093Z,36.84
2022-08-18T11:22:32.994Z,36.91
2022-08-18T11:25:05.592Z,36.92
2022-08-18T11:27:45.812Z,37.11
2022-08-18T11:30:14.468Z,37.23
2022-08-18T11:32:51.640Z,37.19
2022-08-18T11:35:26.012Z,37.27
2022-08-18T11:38:03.797Z,37.15
2022-08-18T11:43:40.716Z,37.12
2022-08-18T11:46:14.399Z,37.01
2022-08-18T11:48:51.936Z,37.10
2022-08-18T11:51:29.405Z,37.22
2022-08-18T11:54:13.921Z,37.11
2022-08-18T11:56:41.555Z,37.24
2022-08-18T11:59:52.562Z,37.31
2022-08-18T12:02:21.138Z,37.05
2022-08-18T12:04:57.697Z,37.07
2022-08-18T12:07:32.058Z,37.00
2022-08-18T12:10:16.463Z,37.10
2022-08-18T12:12:51.946Z,37.23
2022-08-18T12:18:07.316Z,37.28
2022-08-18T12:20:34.921Z,37.35
2022-08-18T12:23:02.306Z,37.38
2022-08-18T12:25:29.730Z,37.50
2022-08-18T12:27:58.379Z,37.45
2022-08-18T12:33:13.744Z,37.48
2022-08-18T12:35:42.150Z,37.46
2022-08-18T12:38:13.739Z,37.38
2022-08-18T12:40:41.966Z,37.49
2022-08-18T12:43:09.562Z,37.62
2022-08-18T12:45:38.485Z,37.61
2022-08-18T12:48:08.056Z,37.65
2022-08-18T12:50:49.992Z,37.58
2022-08-18T12:53:30.254Z,37.33
2022-08-18T12:56:21.940Z,37.55
2022-08-18T12:58:49.884Z,37.34
2022-08-18T13:01:19.445Z,37.44
2022-08-18T13:04:10.617Z,37.63
2022-08-18T13:06:37.385Z,37.67
2022-08-18T13:09:16.514Z,37.67
2022-08-18T13:11:55.830Z,37.64
2022-08-18T13:14:28.439Z,37.57
2022-08-18T13:16:56.060Z,37.69
2022-08-18T13:19:24.453Z,37.65
2022-08-18T13:22:00.492Z,37.51
2022-08-18T13:24:27.823Z,37.78
2022-08-18T13:26:56.143Z,37.80
2022-08-18T13:29:24.705Z,37.78
2022-08-18T13:31:57.747Z,37.86
2022-08-18T13:34:27.640Z,37.77
2022-08-18T13:36:57.726Z,37.71
2022-08-18T13:39:25.719Z,37.74
2022-08-18T13:42:26.676Z,37.81
2022-08-18T13:44:53.007Z,37.62
2022-08-18T13:47:22.355Z,37.61
2022-08-18T13:49:57.986Z,37.80
2022-08-18T13:52:35.657Z,37.71
2022-08-18T13:55:11.838Z,37.67
2022-08-18T13:57:48.106Z,37.77
2022-08-18T14:00:20.498Z,37.48
2022-08-18T14:03:03.323Z,37.49
2022-08-18T14:05:36.832Z,37.29
2022-08-18T14:08:19.909Z,37.33
2022-08-18T14:10:49.820Z,37.52
2022-08-18T14:13:20.631Z,37.40
2022-08-18T14:15:54.703Z,37.16
2022-08-18T14:18:29.254Z,37.33
2022-08-18T14:21:17.136Z,37.45
2022-08-18T14:24:10.290Z,37.53
2022-08-18T14:26:50.025Z,37.42
2022-08-18T14:29:46.579Z,37.45
2022-08-18T14:32:07.230Z,37.27
2022-08-18T14:34:34.960Z,37.12
2022-08-18T14:37:03.389Z,37.20
2022-08-18T14:39:31.081Z,37.05
2022-08-18T14:41:58.548Z,37.08
2022-08-18T14:44:31.693Z,37.09
2022-08-18T14:47:00.135Z,37.32
2022-08-18T14:49:29.211Z,37.29
2022-08-18T14:52:01.106Z,37.18
2022-08-18T14:54:31.182Z,37.41
2022-08-18T14:57:01.689Z,37.31
2022-08-18T14:59:30.994Z,37.31
2022-08-18T15:02:07.585Z,37.39
2022-08-18T15:04:55.986Z,37.21
2022-08-18T15:07:26.136Z,37.29
2022-08-18T15:10:14.372Z,37.16
2022-08-18T15:12:41.910Z,37.14
2022-08-18T15:15:16.765Z,37.30
2022-08-18T15:17:51.480Z,37.24
2022-08-18T15:20:29.450Z,37.14
2022-08-18T15:23:24.688Z,37.08
2022-08-18T15:25:56.398Z,37.03
2022-08-18T15:28:25.307Z,36.98
2022-08-18T15:31:16.634Z,37.03
2022-08-18T15:33:40.853Z,37.10
2022-08-18T15:36:10.143Z,36.96
2022-08-18T15:38:38.333Z,37.15
2022-08-18T15:41:09.435Z,36.98
2022-08-18T15:43:39.929Z,37.12
2022-08-18T15:46:14.019Z,37.01
2022-08-18T15:48:44.291Z,37.03
2022-08-18T15:51:12.432Z,36.85
2022-08-18T15:53:44.974Z,36.73
2022-08-18T15:56:15.821Z,36.72
2022-08-18T15:58:46.076Z,36.77
2022-08-18T16:01:29.816Z,36.73
2022-08-18T16:03:58.450Z,36.74
2022-08-18T16:06:27.795Z,36.79
2022-08-18T16:09:01.005Z,36.88
2022-08-18T16:11:29.837Z,36.77
2022-08-18T16:14:01.190Z,36.70
2022-08-18T16:16:36.083Z,36.67
2022-08-18T16:19:06.990Z,36.62
2022-08-18T16:21:38.394Z,36.75
2022-08-18T16:24:06.867Z,36.62
2022-08-18T16:26:34.187Z,36.63
2022-08-18T16:29:02.139Z,36.54
2022-08-18T16:31:29.575Z,36.68
2022-08-18T16:33:57.825Z,36.66
2022-08-18T16:36:25.676Z,36.65
2022-08-18T16:38:54.410Z,36.49
2022-08-18T16:41:26.782Z,36.49
2022-08-18T16:43:54.628Z,36.48
2022-08-18T16:46:25.966Z,36.38
2022-08-18T16:48:57.815Z,36.31
2022-08-18T16:51:26.687Z,36.35
2022-08-18T16:53:54.560Z,36.26
2022-08-18T16:56:25.494Z,36.25
2022-08-18T16:59:11.525Z,36.16
2022-08-18T17:02:03.070Z,36.19
2022-08-18T17:04:33.712Z,36.08
2022-08-18T17:07:03.531Z,36.00
2022-08-18T17:09:31.027Z,35.96
2022-08-18T17:11:58.432Z,35.90
2022-08-18T17:14:28.471Z,35.86
2022-08-18T17:16:58.406Z,35.76
2022-08-18T17:19:30.106Z,35.82
2022-08-18T17:21:57.667Z,35.67
2022-08-18T17:24:32.084Z,35.59
2022-08-18T17:27:26.265Z,35.44
2022-08-18T17:30:00.448Z,35.08
2022-08-18T17:32:41.977Z,35.00
2022-08-18T17:35:15.491Z,34.95
2022-08-18T17:37:52.212Z,35.00
2022-08-18T17:40:47.914Z,35.03
2022-08-18T17:43:22.550Z,34.96
2022-08-18T17:46:05.797Z,34.92
2022-08-18T17:48:47.551Z,34.81
2022-08-18T17:51:34.676Z,34.71
2022-08-18T17:54:19.108Z,34.61
2022-08-18T17:56:52.674Z,34.44
2022-08-18T17:59:42.840Z,34.30
2022-08-18T18:02:28.845Z,34.22
2022-08-18T18:05:02.204Z,34.13
2022-08-18T18:07:40.346Z,34.00
2022-08-18T18:10:14.631Z,33.96
2022-08-18T18:12:42.095Z,33.84
2022-08-18T18:15:12.599Z,33.61
2022-08-18T18:17:41.943Z,33.49
2022-08-18T18:20:15.341Z,33.33
2022-08-18T18:22:44.432Z,33.25
2022-08-18T18:25:13.711Z,33.12
2022-08-18T18:27:43.002Z,33.05
2022-08-18T18:30:27.817Z,32.92
2022-08-18T18:33:00.699Z,32.90
2022-08-18T18:35:31.161Z,32.75
2022-08-18T18:38:05.284Z,32.60
2022-08-18T18:40:41.384Z,32.57
2022-08-18T18:43:34.010Z,32.45
2022-08-18T18:46:23.321Z,32.39
2022-08-18T18:48:52.241Z,32.23
2022-08-18T18:51:33.704Z,32.12
2022-08-18T18:54:28.332Z,32.06
2022-08-18T18:56:56.802Z,32.05
2022-08-18T19:00:09.370Z,31.92
2022-08-18T19:02:47.703Z,31.85
2022-08-18T19:05:44.689Z,31.77
2022-08-18T19:08:19.103Z,31.76
2022-08-18T19:10:56.770Z,31.66
2022-08-18T19:13:35.052Z,31.56
2022-08-18T19:16:28.875Z,31.50
2022-08-18T19:19:38.465Z,31.40
2022-08-18T19:22:06.635Z,31.38
2022-08-18T19:24:40.407Z,31.22
2022-08-18T19:27:18.488Z,31.24
2022-08-18T19:29:52.088Z,31.25
2022-08-18T19:32:24.371Z,31.22
2022-08-18T19:34:55.666Z,31.10
2022-08-18T19:37:31.278Z,31.08
2022-08-18T19:40:11.979Z,31.04
2022-08-18T19:42:44.480Z,30.96
2022-08-18T19:45:25.382Z,30.91
2022-08-18T19:48:03.061Z,30.85
2022-08-18T19:50:55.561Z,30.74
2022-08-18T19:53:52.569Z,30.70
2022-08-18T19:56:48.071Z,30.67
2022-08-18T19:59:50.932Z,30.64
2022-08-18T20:02:55.768Z,30.49
2022-08-18T20:05:45.271Z,30.51
2022-08-18T20:08:15.356Z,30.45
2022-08-18T20:11:12.997Z,30.48
2022-08-18T20:13:43.431Z,30.46
2022-08-18T20:16:15.437Z,30.45
2022-08-18T20:18:48.961Z,30.47
2022-08-18T20:21:22.511Z,30.35
2022-08-18T20:24:07.066Z,30.34
2022-08-18T20:26:34.553Z,30.41
2022-08-18T20:29:02.258Z,30.46
2022-08-18T20:31:50.633Z,30.49
2022-08-18T20:34:22.433Z,30.48
2022-08-18T20:36:51.901Z,30.39
2022-08-18T20:39:39.837Z,30.39
2022-08-18T20:42:20.499Z,30.43
2022-08-18T20:44:48.026Z,30.36
2022-08-18T20:47:30.546Z,30.34
2022-08-18T20:50:13.184Z,30.27
2022-08-18T20:53:18.197Z,30.17
2022-08-18T20:56:31.439Z,30.26
2022-08-18T20:58:59.054Z,30.24
2022-08-18T21:01:29.193Z,30.13
2022-08-18T21:04:00.037Z,30.03
2022-08-18T21:06:33.458Z,30.07
2022-08-18T21:09:00.946Z,29.94
2022-08-18T21:11:41.222Z,29.82
2022-08-18T21:14:09.410Z,29.89
2022-08-18T21:16:44.892Z,29.96
2022-08-18T21:19:24.717Z,30.00
2022-08-18T21:21:56.812Z,30.05
2022-08-18T21:24:31.674Z,30.13
2022-08-18T21:27:04.301Z,30.19
2022-08-18T21:29:49.046Z,30.28
2022-08-18T21:32:37.329Z,30.29
2022-08-18T21:35:21.587Z,30.33
2022-08-18T21:38:15.540Z,30.33
2022-08-18T21:40:46.351Z,30.47
2022-08-18T21:43:33.219Z,30.43
2022-08-18T21:46:01.549Z,30.51
2022-08-18T21:48:29.791Z,30.49
2022-08-18T21:51:00.474Z,30.44
2022-08-18T21:53:30.936Z,30.48
2022-08-18T21:55:59.524Z,30.41
2022-08-18T21:58:38.083Z,30.41
2022-08-18T22:01:20.908Z,30.39
2022-08-18T22:03:51.567Z,30.41
2022-08-18T22:06:28.143Z,30.39
2022-08-18T22:08:57.211Z,30.41
2022-08-18T22:12:00.868Z,30.39
2022-08-18T22:14:54.652Z,30.46
2022-08-18T22:17:59.739Z,30.45
2022-08-18T22:20:35.815Z,30.35
2022-08-18T22:23:30.758Z,30.25
2022-08-18T22:26:22.800Z,30.21
2022-08-18T22:28:54.804Z,30.22
2022-08-18T22:31:24.667Z,30.17
2022-08-18T22:33:53.500Z,30.20
2022-08-18T22:36:26.431Z,30.07
2022-08-18T22:38:54.748Z,30.03
2022-08-18T22:41:22.221Z,29.93
2022-08-18T22:43:55.190Z,29.83
2022-08-18T22:46:24.893Z,29.79
2022-08-18T22:48:53.013Z,29.75
2022-08-18T22:51:26.144Z,29.82
2022-08-18T22:53:55.759Z,29.73
2022-08-18T22:56:34.396Z,29.73
2022-08-18T22:59:16.023Z,29.70
2022-08-18T23:01:48.835Z,29.64
2022-08-18T23:04:19.019Z,29.66
2022-08-18T23:06:51.922Z,29.57
2022-08-18T23:09:22.049Z,29.45
2022-08-18T23:11:49.799Z,29.41
2022-08-18T23:14:17.629Z,29.44
2022-08-18T23:16:45.359Z,29.35
2022-08-18T23:19:14.737Z,29.51
2022-08-18T23:21:42.444Z,29.42
2022-08-18T23:24:12.123Z,29.34
2022-08-18T23:26:40.329Z,29.32
2022-08-18T23:29:11.417Z,29.31
2022-08-18T23:31:40.951Z,29.41
2022-08-18T23:34:09.254Z,29.33
2022-08-18T23:36:41.311Z,29.30
2022-08-18T23:39:10.082Z,29.31
2022-08-18T23:41:38.261Z,29.33
2022-08-18T23:44:06.588Z,29.29
2022-08-18T23:46:34.658Z,29.46
2022-08-18T23:49:04.475Z,29.39
2022-08-18T23:51:44.293Z,29.38
2022-08-18T23:54:17.740Z,29.38
2022-08-18T23:56:45.802Z,29.34
2022-08-18T23:59:14.524Z,29.38
